createdAt,value
2022-11-14T00:01:14.162Z,101658.56
2022-11-14T00:04:16.095Z,101655.41
2022-11-14T00:07:18.056Z,101646.87
2022-11-14T00:10:19.932Z,101649.25
2022-11-14T00:13:21.759Z,101631.00
2022-11-14T00:16:23.624Z,101648.62
2022-11-14T00:19:25.432Z,101644.69
2022-11-14T00:22:27.251Z,101641.13
2022-11-14T00:25:29.032Z,101637.69
2022-11-14T00:28:31.079Z,101631.03
2022-11-14T00:31:33.068Z,101641.22
2022-11-14T00:34:34.942Z,101646.06
2022-11-14T00:37:36.795Z,101639.25
2022-11-14T00:40:38.608Z,101634.81
2022-11-14T00:43:40.418Z,101639.94
2022-11-14T00:46:42.196Z,101632.97
2022-11-14T00:49:44.024Z,101638.16
2022-11-14T00:52:45.888Z,101640.84
2022-11-14T00:55:47.677Z,101641.59
2022-11-14T00:58:49.483Z,101642.12
2022-11-14T01:01:55.304Z,101645.22
2022-11-14T01:04:59.448Z,101644.53
2022-11-14T01:08:01.223Z,101641.56
2022-11-14T01:11:08.435Z,101638.38
2022-11-14T01:14:10.220Z,101645.34
2022-11-14T01:17:12.026Z,101633.84
2022-11-14T01:20:14.048Z,101637.59
2022-11-14T01:23:16.451Z,101628.84
2022-11-14T01:26:18.294Z,101633.28
2022-11-14T01:29:20.116Z,101632.00
2022-11-14T01:32:21.910Z,101621.75
2022-11-14T01:35:23.703Z,101611.75
2022-11-14T01:38:25.542Z,101614.94
2022-11-14T01:41:27.379Z,101619.81
2022-11-14T01:44:40.893Z,101620.81
2022-11-14T01:47:42.951Z,101622.75
2022-11-14T01:50:44.732Z,101619.87
2022-11-14T01:53:46.876Z,101619.13
2022-11-14T01:56:50.649Z,101617.44
2022-11-14T01:59:53.332Z,101609.66
2022-11-14T02:02:55.149Z,101600.63
2022-11-14T02:05:56.924Z,101604.72
2022-11-14T02:08:59.961Z,101602.78
2022-11-14T02:12:02.960Z,101596.56
2022-11-14T02:15:04.868Z,101603.72
2022-11-14T02:18:06.814Z,101603.84
2022-11-14T02:21:08.622Z,101600.38
2022-11-14T02:24:10.729Z,101600.88
2022-11-14T02:27:13.450Z,101600.81
2022-11-14T02:30:20.429Z,101602.84
2022-11-14T02:33:22.216Z,101603.03
2022-11-14T02:36:24.076Z,101601.25
2022-11-14T02:39:25.965Z,101610.88
2022-11-14T02:42:27.780Z,101599.53
2022-11-14T02:45:30.127Z,101601.16
2022-11-14T02:48:32.242Z,101603.03
2022-11-14T02:51:34.161Z,101599.53
2022-11-14T02:54:35.951Z,101593.41
2022-11-14T02:57:37.808Z,101594.22
2022-11-14T03:00:59.191Z,101594.25
2022-11-14T03:04:01.425Z,101593.44
2022-11-14T03:07:03.266Z,101598.53
2022-11-14T03:10:05.347Z,101586.81
2022-11-14T03:13:07.155Z,101591.69
2022-11-14T03:16:10.043Z,101582.16
2022-11-14T03:19:11.918Z,101586.50
2022-11-14T03:22:13.789Z,101596.03
2022-11-14T03:25:16.055Z,101592.59
2022-11-14T03:28:20.161Z,101584.78
2022-11-14T03:31:22.089Z,101584.75
2022-11-14T03:34:23.896Z,101583.88
2022-11-14T03:37:25.859Z,101590.78
2022-11-14T03:40:27.692Z,101589.84
2022-11-14T03:43:33.105Z,101582.16
2022-11-14T03:46:34.939Z,101582.13
2022-11-14T03:49:36.774Z,101581.28
2022-11-14T03:52:38.595Z,101587.31
2022-11-14T03:55:40.392Z,101583.88
2022-11-14T03:58:42.204Z,101581.19
2022-11-14T04:01:44.056Z,101578.41
2022-11-14T04:04:45.871Z,101573.09
2022-11-14T04:07:47.693Z,101565.63
2022-11-14T04:10:49.512Z,101575.19
2022-11-14T04:13:51.336Z,101583.00
2022-11-14T04:16:53.126Z,101568.22
2022-11-14T04:19:54.947Z,101576.94
2022-11-14T04:22:56.786Z,101564.75
2022-11-14T04:25:58.640Z,101554.31
2022-11-14T04:29:00.520Z,101557.72
2022-11-14T04:32:02.306Z,101552.37
2022-11-14T04:35:04.173Z,101564.75
2022-11-14T04:38:05.967Z,101556.91
2022-11-14T04:41:07.799Z,101563.88
2022-11-14T04:44:09.614Z,101551.69
2022-11-14T04:47:11.431Z,101549.97
2022-11-14T04:50:13.350Z,101549.09
2022-11-14T04:53:15.163Z,101539.53
2022-11-14T04:56:17.182Z,101543.81
2022-11-14T04:59:21.084Z,101545.63
2022-11-14T05:02:23.171Z,101532.53
2022-11-14T05:05:24.971Z,101533.44
2022-11-14T05:08:26.946Z,101535.16
2022-11-14T05:11:29.503Z,101531.69
2022-11-14T05:14:31.832Z,101542.16
2022-11-14T05:17:33.626Z,101538.69
2022-11-14T05:20:35.525Z,101519.53
2022-11-14T05:23:37.378Z,101533.22
2022-11-14T05:26:39.774Z,101528.00
2022-11-14T05:29:41.605Z,101523.88
2022-11-14T05:32:43.395Z,101533.44
2022-11-14T05:35:45.229Z,101533.41
2022-11-14T05:38:47.113Z,101529.94
2022-11-14T05:41:48.935Z,101535.16
2022-11-14T05:44:50.771Z,101523.81
2022-11-14T05:47:54.171Z,101531.69
2022-11-14T05:50:59.609Z,101533.41
2022-11-14T05:54:01.397Z,101526.28
2022-11-14T05:57:04.469Z,101536.84
2022-11-14T06:00:06.594Z,101525.37
2022-11-14T06:03:08.454Z,101536.75
2022-11-14T06:06:11.546Z,101528.16
2022-11-14T06:09:13.370Z,101528.22
2022-11-14T06:12:15.163Z,101528.63
2022-11-14T06:15:17.013Z,101535.75
2022-11-14T06:18:18.840Z,101540.34
2022-11-14T06:21:21.536Z,101549.06
2022-11-14T06:24:23.339Z,101553.38
2022-11-14T06:27:25.150Z,101552.50
2022-11-14T06:30:26.984Z,101554.12
2022-11-14T06:33:29.549Z,101545.09
2022-11-14T06:36:31.525Z,101560.38
2022-11-14T06:39:33.446Z,101563.81
2022-11-14T06:42:35.386Z,101561.94
2022-11-14T06:45:37.211Z,101568.03
2022-11-14T06:48:39.313Z,101562.84
2022-11-14T06:51:41.253Z,101557.66
2022-11-14T06:54:43.170Z,101550.41
2022-11-14T06:57:44.962Z,101564.59
2022-11-14T07:00:46.870Z,101552.56
2022-11-14T07:03:48.932Z,101550.62
2022-11-14T07:06:50.877Z,101550.62
2022-11-14T07:09:54.571Z,101558.28
2022-11-14T07:12:56.349Z,101559.41
2022-11-14T07:15:58.185Z,101548.87
2022-11-14T07:19:00.149Z,101561.94
2022-11-14T07:22:02.301Z,101561.12
2022-11-14T07:25:04.814Z,101567.19
2022-11-14T07:28:06.731Z,101563.69
2022-11-14T07:31:09.857Z,101558.22
2022-11-14T07:34:13.973Z,101546.41
2022-11-14T07:37:15.777Z,101556.53
2022-11-14T07:40:18.860Z,101546.91
2022-11-14T07:43:20.788Z,101549.78
2022-11-14T07:46:22.618Z,101556.63
2022-11-14T07:49:24.482Z,101548.41
2022-11-14T07:52:26.365Z,101549.00
2022-11-14T07:55:28.172Z,101560.88
2022-11-14T07:58:30.265Z,101554.56
2022-11-14T08:01:32.461Z,101551.81
2022-11-14T08:04:34.311Z,101547.12
2022-11-14T08:07:36.160Z,101553.69
2022-11-14T08:10:38.040Z,101546.19
2022-11-14T08:13:40.153Z,101542.34
2022-11-14T08:16:42.072Z,101545.81
2022-11-14T08:19:44.021Z,101541.69
2022-11-14T08:22:45.898Z,101532.34
2022-11-14T08:25:47.741Z,101527.00
2022-11-14T08:28:52.853Z,101519.47
2022-11-14T08:31:59.760Z,101522.00
2022-11-14T08:35:04.854Z,101525.06
2022-11-14T08:38:06.728Z,101511.19
2022-11-14T08:41:08.659Z,101512.34
2022-11-14T08:44:10.560Z,101510.91
2022-11-14T08:47:12.522Z,101513.22
2022-11-14T08:50:14.513Z,101508.63
2022-11-14T08:53:16.382Z,101501.50
2022-11-14T08:56:18.280Z,101505.91
2022-11-14T08:59:20.199Z,101517.53
2022-11-14T09:02:22.085Z,101511.31
2022-11-14T09:05:24.088Z,101509.19
2022-11-14T09:08:26.143Z,101502.75
2022-11-14T09:11:29.282Z,101501.78
2022-11-14T09:14:31.248Z,101503.84
2022-11-14T09:17:33.329Z,101502.97
2022-11-14T09:20:39.714Z,101502.22
2022-11-14T09:23:42.786Z,101491.75
2022-11-14T09:26:44.763Z,101506.19
2022-11-14T09:29:46.926Z,101496.16
2022-11-14T09:32:49.007Z,101495.28
2022-11-14T09:35:55.919Z,101482.03
2022-11-14T09:38:57.812Z,101492.84
2022-11-14T09:42:05.644Z,101480.00
2022-11-14T09:45:11.511Z,101490.09
2022-11-14T09:48:17.255Z,101476.53
2022-11-14T09:51:20.255Z,101480.16
2022-11-14T09:54:23.317Z,101474.25
2022-11-14T09:57:25.188Z,101465.53
2022-11-14T10:00:28.111Z,101457.41
2022-11-14T10:03:33.072Z,101465.16
2022-11-14T10:06:50.461Z,101460.69
2022-11-14T10:10:07.663Z,101449.53
2022-11-14T10:13:12.303Z,101446.47
2022-11-14T10:16:33.104Z,101434.78
2022-11-14T10:19:50.864Z,101431.66
2022-11-14T10:23:01.709Z,101429.59
2022-11-14T10:26:33.335Z,101419.75
2022-11-14T10:29:35.193Z,101423.81
2022-11-14T10:32:39.787Z,101409.94
2022-11-14T10:36:08.096Z,101410.84
2022-11-14T10:39:11.994Z,101408.16
2022-11-14T10:42:25.641Z,101396.19
2022-11-14T10:45:35.072Z,101397.00
2022-11-14T10:48:39.042Z,101390.59
2022-11-14T10:51:44.694Z,101396.03
2022-11-14T10:54:48.392Z,101384.22
2022-11-14T10:57:53.352Z,101379.25
2022-11-14T11:00:55.381Z,101372.66
2022-11-14T11:03:57.277Z,101363.47
2022-11-14T11:07:38.114Z,101360.94
2022-11-14T11:11:00.600Z,101356.25
2022-11-14T11:14:02.525Z,101362.25
2022-11-14T11:17:21.085Z,101360.03
2022-11-14T11:20:29.295Z,101356.91
2022-11-14T11:23:31.331Z,101352.34
2022-11-14T11:26:33.225Z,101341.72
2022-11-14T11:29:35.143Z,101341.97
2022-11-14T11:32:37.053Z,101334.09
2022-11-14T11:35:39.167Z,101327.19
2022-11-14T11:38:40.999Z,101331.28
2022-11-14T11:42:07.766Z,101326.00
2022-11-14T11:45:06.711Z,101327.66
2022-11-14T11:48:10.969Z,101317.09
2022-11-14T11:51:14.117Z,101304.41
2022-11-14T11:54:16.961Z,101311.03
2022-11-14T11:57:21.908Z,101306.34
2022-11-14T12:00:24.103Z,101298.50
2022-11-14T12:03:26.192Z,101292.44
2022-11-14T12:06:28.966Z,101288.94
2022-11-14T12:10:03.673Z,101284.78
2022-11-14T12:12:58.761Z,101278.16
2022-11-14T12:16:05.594Z,101283.91
2022-11-14T12:19:19.876Z,101266.03
2022-11-14T12:22:27.731Z,101267.72
2022-11-14T12:25:46.136Z,101261.31
2022-11-14T12:29:02.105Z,101259.16
2022-11-14T12:32:04.845Z,101257.81
2022-11-14T12:35:07.370Z,101249.53
2022-11-14T12:38:13.438Z,101237.31
2022-11-14T12:41:24.015Z,101242.94
2022-11-14T12:44:28.714Z,101232.91
2022-11-14T12:47:36.434Z,101230.41
2022-11-14T12:50:42.036Z,101231.38
2022-11-14T12:53:44.505Z,101231.00
2022-11-14T12:56:53.806Z,101226.00
2022-11-14T12:59:57.875Z,101221.47
2022-11-14T13:03:12.061Z,101220.41
2022-11-14T13:06:22.515Z,101219.84
2022-11-14T13:09:27.627Z,101215.88
2022-11-14T13:12:49.242Z,101213.22
2022-11-14T13:16:11.164Z,101213.44
2022-11-14T13:19:39.707Z,101205.78
2022-11-14T13:22:42.663Z,101210.66
2022-11-14T13:25:44.638Z,101200.13
2022-11-14T13:28:50.394Z,101198.63
2022-11-14T13:31:52.300Z,101192.81
2022-11-14T13:34:56.922Z,101199.69
2022-11-14T13:38:17.701Z,101207.03
2022-11-14T13:41:47.560Z,101203.37
2022-11-14T13:45:09.073Z,101195.25
2022-11-14T13:48:29.815Z,101190.38
2022-11-14T13:51:46.954Z,101186.47
2022-11-14T13:54:49.898Z,101182.41
2022-11-14T13:57:55.168Z,101179.94
2022-11-14T14:01:09.289Z,101177.62
2022-11-14T14:04:11.362Z,101175.06
2022-11-14T14:07:16.526Z,101176.59
2022-11-14T14:10:18.505Z,101177.66
2022-11-14T14:13:55.506Z,101170.31
2022-11-14T14:17:08.065Z,101171.72
2022-11-14T14:20:28.865Z,101166.56
2022-11-14T14:23:39.549Z,101174.06
2022-11-14T14:26:44.967Z,101173.66
2022-11-14T14:29:46.939Z,101163.53
2022-11-14T14:33:08.026Z,101163.47
2022-11-14T14:36:36.317Z,101167.00
2022-11-14T14:39:38.272Z,101154.94
2022-11-14T14:42:40.533Z,101165.75
2022-11-14T14:45:46.392Z,101167.62
2022-11-14T14:48:48.416Z,101165.75
2022-11-14T14:51:54.412Z,101163.34
2022-11-14T14:55:02.289Z,101160.00
2022-11-14T14:58:36.115Z,101156.63
2022-11-14T15:01:38.338Z,101153.44
2022-11-14T15:04:40.266Z,101153.22
2022-11-14T15:07:42.244Z,101154.63
2022-11-14T15:10:44.162Z,101164.88
2022-11-14T15:13:46.223Z,101158.38
2022-11-14T15:16:53.295Z,101152.00
2022-11-14T15:19:55.238Z,101150.16
2022-11-14T15:23:03.397Z,101159.03
2022-11-14T15:26:16.245Z,101148.25
2022-11-14T15:29:22.072Z,101159.22
2022-11-14T15:32:24.463Z,101147.78
2022-11-14T15:35:26.514Z,101149.91
2022-11-14T15:38:43.500Z,101154.22
2022-11-14T15:41:46.106Z,101155.87
2022-11-14T15:44:49.572Z,101147.81
2022-11-14T15:47:58.550Z,101147.91
2022-11-14T15:51:00.404Z,101147.16
2022-11-14T15:54:02.651Z,101150.31
2022-11-14T15:57:14.667Z,101158.94
2022-11-14T16:00:17.312Z,101154.44
2022-11-14T16:03:19.710Z,101143.59
2022-11-14T16:06:21.952Z,101140.00
2022-11-14T16:09:24.095Z,101151.28
2022-11-14T16:12:25.983Z,101153.44
2022-11-14T16:15:27.977Z,101150.88
2022-11-14T16:18:32.562Z,101153.75
2022-11-14T16:21:34.559Z,101164.78
2022-11-14T16:24:36.551Z,101156.31
2022-11-14T16:27:38.805Z,101166.22
2022-11-14T16:30:40.985Z,101163.06
2022-11-14T16:33:42.935Z,101164.72
2022-11-14T16:36:46.141Z,101159.09
2022-11-14T16:39:48.118Z,101168.06
2022-11-14T16:42:50.277Z,101156.13
2022-11-14T16:45:52.122Z,101156.88
2022-11-14T16:48:54.809Z,101170.56
2022-11-14T16:51:58.506Z,101154.56
2022-11-14T16:55:00.329Z,101148.53
2022-11-14T16:58:02.467Z,101159.44
2022-11-14T17:01:05.686Z,101168.94
2022-11-14T17:04:10.584Z,101163.78
2022-11-14T17:07:12.578Z,101161.69
2022-11-14T17:10:14.609Z,101167.53
2022-11-14T17:13:24.262Z,101167.91
2022-11-14T17:16:26.322Z,101156.34
2022-11-14T17:19:29.675Z,101166.34
2022-11-14T17:22:31.696Z,101168.59
2022-11-14T17:25:33.521Z,101170.59
2022-11-14T17:28:35.524Z,101160.94
2022-11-14T17:31:39.512Z,101162.66
2022-11-14T17:34:43.885Z,101158.72
2022-11-14T17:37:45.733Z,101165.56
2022-11-14T17:40:47.560Z,101156.88
2022-11-14T17:43:51.915Z,101150.59
2022-11-14T17:46:55.996Z,101141.56
2022-11-14T17:49:57.887Z,101146.47
2022-11-14T17:52:59.698Z,101145.87
2022-11-14T17:56:01.558Z,101144.47
2022-11-14T17:59:03.372Z,101142.19
2022-11-14T18:02:05.359Z,101143.91
2022-11-14T18:05:07.421Z,101149.31
2022-11-14T18:08:09.250Z,101150.81
2022-11-14T18:11:11.983Z,101142.37
2022-11-14T18:14:14.851Z,101136.00
2022-11-14T18:17:16.771Z,101134.72
2022-11-14T18:20:18.725Z,101139.63
2022-11-14T18:23:20.611Z,101136.75
2022-11-14T18:26:27.101Z,101145.31
2022-11-14T18:29:30.722Z,101144.34
2022-11-14T18:32:32.553Z,101141.81
2022-11-14T18:35:34.515Z,101143.53
2022-11-14T18:38:36.429Z,101139.63
2022-11-14T18:41:38.237Z,101136.81
2022-11-14T18:44:40.046Z,101127.94
2022-11-14T18:47:42.206Z,101121.22
2022-11-14T18:50:44.046Z,101142.41
2022-11-14T18:53:45.885Z,101134.63
2022-11-14T18:56:47.735Z,101135.41
2022-11-14T18:59:49.596Z,101135.97
2022-11-14T19:02:51.423Z,101131.09
2022-11-14T19:05:53.409Z,101133.78
2022-11-14T19:08:58.480Z,101131.03
2022-11-14T19:12:18.648Z,101124.63
2022-11-14T19:15:20.524Z,101121.25
2022-11-14T19:18:22.427Z,101115.19
2022-11-14T19:21:24.240Z,101118.37
2022-11-14T19:24:26.209Z,101111.56
2022-11-14T19:27:28.050Z,101118.41
2022-11-14T19:30:29.857Z,101118.84
2022-11-14T19:33:32.299Z,101117.16
2022-11-14T19:39:56.537Z,101109.03
2022-11-14T19:43:01.920Z,101123.00
2022-11-14T19:46:04.097Z,101122.22
2022-11-14T19:49:07.328Z,101120.47
2022-11-14T19:52:09.177Z,101122.09
2022-11-14T19:55:11.048Z,101124.25
2022-11-14T19:58:12.953Z,101124.13
2022-11-14T20:01:19.126Z,101123.69
2022-11-14T20:04:20.996Z,101112.13
2022-11-14T20:07:22.880Z,101112.44
2022-11-14T20:10:24.708Z,101113.06
2022-11-14T20:13:29.622Z,101111.84
2022-11-14T20:16:32.567Z,101121.06
2022-11-14T20:19:34.420Z,101116.69
2022-11-14T20:22:36.273Z,101113.88
2022-11-14T20:25:38.340Z,101104.50
2022-11-14T20:28:40.529Z,101093.25
2022-11-14T20:31:42.370Z,101094.72
2022-11-14T20:34:44.190Z,101101.81
2022-11-14T20:37:47.545Z,101098.44
2022-11-14T20:40:55.573Z,101096.72
2022-11-14T20:43:57.381Z,101101.06
2022-11-14T20:46:59.208Z,101099.09
2022-11-14T20:50:01.038Z,101111.00
2022-11-14T20:53:02.832Z,101108.22
2022-11-14T20:56:04.673Z,101103.16
2022-11-14T20:59:07.310Z,101110.28
2022-11-14T21:02:11.011Z,101105.59
2022-11-14T21:05:12.818Z,101101.59
2022-11-14T21:08:15.261Z,101096.50
2022-11-14T21:11:18.330Z,101095.84
2022-11-14T21:14:20.168Z,101093.03
2022-11-14T21:17:22.040Z,101098.09
2022-11-14T21:20:23.886Z,101077.37
2022-11-14T21:23:25.840Z,101083.56
2022-11-14T21:26:31.527Z,101077.66
2022-11-14T21:29:33.380Z,101074.63
2022-11-14T21:32:36.284Z,101073.53
2022-11-14T21:35:38.128Z,101069.31
2022-11-14T21:38:40.236Z,101066.28
2022-11-14T21:41:42.077Z,101069.22
2022-11-14T21:44:43.916Z,101074.34
2022-11-14T21:47:45.699Z,101067.53
2022-11-14T21:50:47.577Z,101070.56
2022-11-14T21:53:49.856Z,101065.78
2022-11-14T21:56:51.692Z,101056.94
2022-11-14T21:59:53.525Z,101056.75
2022-11-14T22:03:18.676Z,101052.47
2022-11-14T22:06:21.323Z,101049.75
2022-11-14T22:09:23.239Z,101046.53
2022-11-14T22:12:25.078Z,101051.94
2022-11-14T22:15:26.888Z,101052.28
2022-11-14T22:18:28.716Z,101038.09
2022-11-14T22:21:30.507Z,101042.56
2022-11-14T22:24:32.575Z,101034.75
2022-11-14T22:27:34.369Z,101034.78
2022-11-14T22:30:36.157Z,101032.03
2022-11-14T22:33:41.511Z,101030.06
2022-11-14T22:36:45.869Z,101023.63
2022-11-14T22:39:47.838Z,101022.41
2022-11-14T22:42:49.648Z,101015.41
2022-11-14T22:45:52.534Z,101018.88
2022-11-14T22:48:54.538Z,101022.97
2022-11-14T22:51:56.455Z,101016.66
2022-11-14T22:54:58.245Z,101014.94
2022-11-14T22:58:00.063Z,101016.25
2022-11-14T23:01:02.365Z,101005.50
2022-11-14T23:04:04.954Z,101009.38
2022-11-14T23:07:06.952Z,101015.66
2022-11-14T23:10:09.051Z,101008.38
2022-11-14T23:13:11.129Z,101005.97
2022-11-14T23:16:13.899Z,100999.75
2022-11-14T23:19:15.684Z,100993.22
2022-11-14T23:22:17.516Z,100997.19
2022-11-14T23:25:20.495Z,100988.38
2022-11-14T23:28:22.316Z,100993.91
2022-11-14T23:31:24.363Z,100982.47
2022-11-14T23:34:26.177Z,100989.00
2022-11-14T23:37:28.018Z,100987.78
2022-11-14T23:40:29.874Z,100981.72
2022-11-14T23:43:31.928Z,100979.94
2022-11-14T23:46:34.007Z,100989.37
2022-11-14T23:49:35.809Z,100977.00
2022-11-14T23:52:37.628Z,100983.44
2022-11-14T23:55:39.508Z,100980.81
2022-11-14T23:58:41.656Z,100973.00
